sensor_id;sensor_type;location;lat;lon;timestamp;P1;durP1;ratioP1;P2;durP2;ratioP2
489;SDS011;231;48.120;11.576;2023-12-20T05:11:11;277.20;;;138.00;;
489;SDS011;231;48.120;11.576;2023-12-20T05:13:44;272.43;;;130.70;;
489;SDS011;231;48.120;11.576;2023-12-20T07:21:44;220.70;;;130.37;;
489;SDS011;231;48.120;11.576;2023-12-20T07:24:11;221.10;;;137.93;;
489;SDS011;231;48.120;11.576;2023-12-20T07:26:38;217.97;;;130.37;;
489;SDS011;231;48.120;11.576;2023-12-20T07:29:05;217.70;;;130.43;;
489;SDS011;231;48.120;11.576;2023-12-20T07:31:31;219.27;;;133.27;;
489;SDS011;231;48.120;11.576;2023-12-20T07:33:59;217.07;;;131.97;;
489;SDS011;231;48.120;11.576;2023-12-20T07:36:26;217.97;;;134.80;;
489;SDS011;231;48.120;11.576;2023-12-20T07:38:54;219.73;;;131.33;;
489;SDS011;231;48.120;11.576;2023-12-20T07:41:21;215.00;;;126.33;;
489;SDS011;231;48.120;11.576;2023-12-20T07:43:49;217.13;;;129.60;;
489;SDS011;231;48.120;11.576;2023-12-20T07:46:20;217.20;;;132.43;;
489;SDS011;231;48.120;11.576;2023-12-20T07:48:49;212.90;;;125.17;;
489;SDS011;231;48.120;11.576;2023-12-20T07:51:19;218.20;;;134.80;;
489;SDS011;231;48.120;11.576;2023-12-20T07:53:48;217.27;;;130.63;;
489;SDS011;231;48.120;11.576;2023-12-20T08:28:36;226.77;;;130.80;;
489;SDS011;231;48.120;11.576;2023-12-20T08:37:58;227.87;;;130.90;;
489;SDS011;231;48.120;11.576;2023-12-20T08:40:53;226.37;;;128.27;;
489;SDS011;231;48.120;11.576;2023-12-20T08:43:40;227.53;;;132.43;;
489;SDS011;231;48.120;11.576;2023-12-20T08:46:13;266.77;;;189.73;;
489;SDS011;231;48.120;11.576;2023-12-20T08:56:29;222.17;;;126.50;;
489;SDS011;231;48.120;11.576;2023-12-20T08:59:05;226.23;;;130.63;;
489;SDS011;231;48.120;11.576;2023-12-20T09:01:47;223.30;;;127.33;;
489;SDS011;231;48.120;11.576;2023-12-20T09:04:38;228.90;;;135.90;;
489;SDS011;231;48.120;11.576;2023-12-20T09:07:40;223.13;;;125.03;;
489;SDS011;231;48.120;11.576;2023-12-20T09:14:10;225.13;;;129.70;;
489;SDS011;231;48.120;11.576;2023-12-20T09:26:57;225.57;;;129.03;;
489;SDS011;231;48.120;11.576;2023-12-20T09:30:07;230.70;;;137.13;;
489;SDS011;231;48.120;11.576;2023-12-20T09:32:34;226.17;;;129.50;;
489;SDS011;231;48.120;11.576;2023-12-20T09:35:01;226.33;;;128.67;;
489;SDS011;231;48.120;11.576;2023-12-20T09:37:30;226.53;;;131.77;;
489;SDS011;231;48.120;11.576;2023-12-20T09:39:57;230.23;;;133.63;;
489;SDS011;231;48.120;11.576;2023-12-20T09:42:28;224.10;;;125.60;;
489;SDS011;231;48.120;11.576;2023-12-20T09:45:03;225.40;;;129.80;;
489;SDS011;231;48.120;11.576;2023-12-20T09:47:34;225.57;;;126.63;;
489;SDS011;231;48.120;11.576;2023-12-20T09:50:01;224.80;;;128.07;;
489;SDS011;231;48.120;11.576;2023-12-20T09:52:28;225.67;;;130.03;;
489;SDS011;231;48.120;11.576;2023-12-20T09:54:59;223.97;;;125.43;;
489;SDS011;231;48.120;11.576;2023-12-20T09:57:32;223.90;;;125.90;;
489;SDS011;231;48.120;11.576;2023-12-20T09:59:59;225.80;;;128.27;;
489;SDS011;231;48.120;11.576;2023-12-20T10:02:26;226.53;;;131.63;;
489;SDS011;231;48.120;11.576;2023-12-20T10:04:54;224.93;;;125.10;;
489;SDS011;231;48.120;11.576;2023-12-20T10:07:21;227.27;;;130.03;;
489;SDS011;231;48.120;11.576;2023-12-20T10:09:48;226.77;;;127.87;;
489;SDS011;231;48.120;11.576;2023-12-20T10:12:17;226.80;;;129.40;;
489;SDS011;231;48.120;11.576;2023-12-20T10:14:45;227.77;;;131.27;;
489;SDS011;231;48.120;11.576;2023-12-20T10:17:12;227.47;;;129.77;;
489;SDS011;231;48.120;11.576;2023-12-20T10:19:38;229.83;;;130.23;;
489;SDS011;231;48.120;11.576;2023-12-20T10:22:05;229.77;;;131.63;;
489;SDS011;231;48.120;11.576;2023-12-20T10:24:32;228.73;;;129.50;;
489;SDS011;231;48.120;11.576;2023-12-20T10:27:02;230.37;;;128.27;;
489;SDS011;231;48.120;11.576;2023-12-20T10:29:31;228.97;;;128.43;;
489;SDS011;231;48.120;11.576;2023-12-20T10:32:00;229.73;;;134.13;;
489;SDS011;231;48.120;11.576;2023-12-20T10:34:48;226.70;;;129.67;;
489;SDS011;231;48.120;11.576;2023-12-20T10:37:14;226.23;;;130.67;;
489;SDS011;231;48.120;11.576;2023-12-20T10:39:41;227.30;;;124.87;;
489;SDS011;231;48.120;11.576;2023-12-20T10:42:09;227.20;;;129.70;;
489;SDS011;231;48.120;11.576;2023-12-20T10:44:37;227.63;;;127.33;;
489;SDS011;231;48.120;11.576;2023-12-20T10:47:05;228.50;;;130.43;;
489;SDS011;231;48.120;11.576;2023-12-20T10:49:34;228.10;;;127.97;;
489;SDS011;231;48.120;11.576;2023-12-20T10:52:03;228.03;;;127.53;;
489;SDS011;231;48.120;11.576;2023-12-20T10:54:32;230.47;;;129.93;;
489;SDS011;231;48.120;11.576;2023-12-20T10:56:59;231.23;;;135.63;;
489;SDS011;231;48.120;11.576;2023-12-20T10:59:27;229.57;;;129.33;;
489;SDS011;231;48.120;11.576;2023-12-20T11:01:55;228.33;;;127.37;;
489;SDS011;231;48.120;11.576;2023-12-20T11:04:29;230.10;;;129.70;;
489;SDS011;231;48.120;11.576;2023-12-20T11:07:04;228.37;;;125.67;;
489;SDS011;231;48.120;11.576;2023-12-20T11:09:38;228.40;;;129.20;;
489;SDS011;231;48.120;11.576;2023-12-20T11:12:10;228.47;;;130.27;;
489;SDS011;231;48.120;11.576;2023-12-20T11:14:41;229.03;;;128.97;;
489;SDS011;231;48.120;11.576;2023-12-20T11:17:12;229.83;;;128.83;;
489;SDS011;231;48.120;11.576;2023-12-20T11:19:45;228.50;;;126.83;;
489;SDS011;231;48.120;11.576;2023-12-20T11:22:31;229.40;;;130.10;;
489;SDS011;231;48.120;11.576;2023-12-20T11:24:59;228.20;;;127.17;;
489;SDS011;231;48.120;11.576;2023-12-20T11:27:30;230.27;;;128.70;;
489;SDS011;231;48.120;11.576;2023-12-20T11:29:57;231.17;;;128.00;;
489;SDS011;231;48.120;11.576;2023-12-20T11:32:29;231.83;;;130.40;;
489;SDS011;231;48.120;11.576;2023-12-20T11:34:57;230.40;;;128.63;;
489;SDS011;231;48.120;11.576;2023-12-20T11:37:28;234.53;;;136.73;;
489;SDS011;231;48.120;11.576;2023-12-20T11:39:59;236.40;;;132.50;;
489;SDS011;231;48.120;11.576;2023-12-20T11:42:27;233.83;;;127.73;;
489;SDS011;231;48.120;11.576;2023-12-20T11:44:59;233.33;;;128.83;;
489;SDS011;231;48.120;11.576;2023-12-20T11:47:28;233.80;;;128.57;;
489;SDS011;231;48.120;11.576;2023-12-20T11:49:57;234.57;;;131.13;;
489;SDS011;231;48.120;11.576;2023-12-20T11:52:25;234.83;;;131.30;;
489;SDS011;231;48.120;11.576;2023-12-20T11:54:52;235.30;;;129.50;;
489;SDS011;231;48.120;11.576;2023-12-20T11:57:19;235.13;;;129.07;;
489;SDS011;231;48.120;11.576;2023-12-20T11:59:46;237.80;;;134.23;;
489;SDS011;231;48.120;11.576;2023-12-20T12:02:13;236.60;;;131.07;;
489;SDS011;231;48.120;11.576;2023-12-20T12:04:41;236.43;;;130.70;;
489;SDS011;231;48.120;11.576;2023-12-20T12:07:09;235.73;;;128.77;;
489;SDS011;231;48.120;11.576;2023-12-20T12:09:36;237.00;;;135.53;;
489;SDS011;231;48.120;11.576;2023-12-20T12:12:05;237.97;;;134.20;;
489;SDS011;231;48.120;11.576;2023-12-20T12:14:42;235.20;;;129.07;;
489;SDS011;231;48.120;11.576;2023-12-20T12:17:26;235.10;;;131.37;;
489;SDS011;231;48.120;11.576;2023-12-20T12:20:03;234.73;;;131.93;;
489;SDS011;231;48.120;11.576;2023-12-20T12:22:36;236.37;;;132.27;;
489;SDS011;231;48.120;11.576;2023-12-20T12:25:09;235.60;;;131.93;;
489;SDS011;231;48.120;11.576;2023-12-20T12:27:39;236.27;;;134.73;;
489;SDS011;231;48.120;11.576;2023-12-20T12:30:06;233.87;;;131.13;;
489;SDS011;231;48.120;11.576;2023-12-20T12:32:34;234.60;;;129.87;;
489;SDS011;231;48.120;11.576;2023-12-20T12:35:02;234.93;;;133.23;;
489;SDS011;231;48.120;11.576;2023-12-20T12:37:31;232.40;;;129.67;;
489;SDS011;231;48.120;11.576;2023-12-20T12:40:01;235.87;;;134.87;;
489;SDS011;231;48.120;11.576;2023-12-20T12:42:30;233.07;;;131.73;;
489;SDS011;231;48.120;11.576;2023-12-20T12:44:57;232.87;;;128.97;;
489;SDS011;231;48.120;11.576;2023-12-20T12:47:24;232.90;;;130.20;;
489;SDS011;231;48.120;11.576;2023-12-20T12:49:51;234.77;;;132.13;;
489;SDS011;231;48.120;11.576;2023-12-20T12:52:18;233.60;;;127.40;;
489;SDS011;231;48.120;11.576;2023-12-20T12:54:45;233.37;;;128.53;;
489;SDS011;231;48.120;11.576;2023-12-20T12:57:13;234.23;;;131.40;;
489;SDS011;231;48.120;11.576;2023-12-20T12:59:41;233.57;;;130.53;;
489;SDS011;231;48.120;11.576;2023-12-20T13:02:09;233.50;;;133.30;;
489;SDS011;231;48.120;11.576;2023-12-20T13:04:35;232.60;;;129.47;;
489;SDS011;231;48.120;11.576;2023-12-20T13:07:02;231.03;;;127.53;;
489;SDS011;231;48.120;11.576;2023-12-20T13:09:29;231.10;;;125.93;;
489;SDS011;231;48.120;11.576;2023-12-20T13:11:56;232.23;;;128.43;;
489;SDS011;231;48.120;11.576;2023-12-20T13:14:26;232.37;;;131.70;;
489;SDS011;231;48.120;11.576;2023-12-20T13:16:53;232.63;;;128.13;;
489;SDS011;231;48.120;11.576;2023-12-20T13:19:21;232.20;;;129.53;;
489;SDS011;231;48.120;11.576;2023-12-20T13:21:47;231.53;;;126.70;;
489;SDS011;231;48.120;11.576;2023-12-20T13:24:14;230.23;;;124.30;;
489;SDS011;231;48.120;11.576;2023-12-20T13:26:41;231.23;;;127.80;;
489;SDS011;231;48.120;11.576;2023-12-20T13:29:08;231.67;;;131.73;;
489;SDS011;231;48.120;11.576;2023-12-20T13:31:36;231.30;;;127.77;;
489;SDS011;231;48.120;11.576;2023-12-20T13:34:03;234.17;;;133.53;;
489;SDS011;231;48.120;11.576;2023-12-20T13:36:30;233.33;;;135.17;;
489;SDS011;231;48.120;11.576;2023-12-20T13:38:57;229.77;;;130.33;;
489;SDS011;231;48.120;11.576;2023-12-20T13:41:24;230.77;;;131.03;;
489;SDS011;231;48.120;11.576;2023-12-20T13:43:50;230.23;;;126.70;;
489;SDS011;231;48.120;11.576;2023-12-20T13:46:17;230.37;;;127.17;;
489;SDS011;231;48.120;11.576;2023-12-20T13:48:46;230.33;;;127.07;;
489;SDS011;231;48.120;11.576;2023-12-20T13:51:13;229.30;;;125.97;;
489;SDS011;231;48.120;11.576;2023-12-20T13:53:40;229.27;;;126.40;;
489;SDS011;231;48.120;11.576;2023-12-20T13:56:07;229.37;;;125.70;;
489;SDS011;231;48.120;11.576;2023-12-20T13:58:34;227.57;;;123.30;;
489;SDS011;231;48.120;11.576;2023-12-20T14:01:01;228.77;;;125.37;;
489;SDS011;231;48.120;11.576;2023-12-20T14:03:27;227.60;;;126.50;;
489;SDS011;231;48.120;11.576;2023-12-20T14:05:57;229.23;;;128.90;;
489;SDS011;231;48.120;11.576;2023-12-20T14:08:24;228.13;;;126.67;;
489;SDS011;231;48.120;11.576;2023-12-20T14:10:52;237.63;;;133.97;;
489;SDS011;231;48.120;11.576;2023-12-20T14:13:18;232.03;;;135.27;;
489;SDS011;231;48.120;11.576;2023-12-20T14:15:46;229.73;;;129.07;;
489;SDS011;231;48.120;11.576;2023-12-20T14:18:14;229.67;;;125.77;;
489;SDS011;231;48.120;11.576;2023-12-20T14:20:42;228.27;;;126.77;;
489;SDS011;231;48.120;11.576;2023-12-20T14:23:11;231.47;;;131.97;;
489;SDS011;231;48.120;11.576;2023-12-20T14:25:39;230.53;;;128.97;;
489;SDS011;231;48.120;11.576;2023-12-20T14:28:07;229.33;;;128.20;;
489;SDS011;231;48.120;11.576;2023-12-20T14:30:35;229.43;;;130.80;;
489;SDS011;231;48.120;11.576;2023-12-20T14:33:03;230.53;;;129.47;;
489;SDS011;231;48.120;11.576;2023-12-20T14:35:30;229.67;;;127.93;;
489;SDS011;231;48.120;11.576;2023-12-20T14:37:58;209.40;;;117.43;;
489;SDS011;231;48.120;11.576;2023-12-20T14:40:27;229.83;;;128.50;;
489;SDS011;231;48.120;11.576;2023-12-20T14:42:54;229.47;;;127.70;;
489;SDS011;231;48.120;11.576;2023-12-20T14:45:21;230.37;;;124.07;;
489;SDS011;231;48.120;11.576;2023-12-20T14:47:48;230.70;;;126.90;;
489;SDS011;231;48.120;11.576;2023-12-20T14:50:15;230.33;;;126.47;;
489;SDS011;231;48.120;11.576;2023-12-20T14:52:43;229.97;;;126.10;;
489;SDS011;231;48.120;11.576;2023-12-20T14:55:11;228.87;;;127.33;;
489;SDS011;231;48.120;11.576;2023-12-20T14:57:39;228.70;;;126.87;;
489;SDS011;231;48.120;11.576;2023-12-20T15:00:07;229.37;;;126.93;;
489;SDS011;231;48.120;11.576;2023-12-20T15:02:34;229.27;;;128.23;;
489;SDS011;231;48.120;11.576;2023-12-20T15:05:01;229.50;;;126.20;;
489;SDS011;231;48.120;11.576;2023-12-20T15:07:28;229.53;;;128.13;;
489;SDS011;231;48.120;11.576;2023-12-20T15:09:55;231.00;;;129.97;;
489;SDS011;231;48.120;11.576;2023-12-20T15:12:22;228.23;;;128.50;;
489;SDS011;231;48.120;11.576;2023-12-20T15:14:50;227.13;;;125.27;;
489;SDS011;231;48.120;11.576;2023-12-20T15:17:17;216.80;;;124.97;;
489;SDS011;231;48.120;11.576;2023-12-20T15:19:44;216.03;;;125.17;;
489;SDS011;231;48.120;11.576;2023-12-20T15:22:11;218.13;;;128.43;;
489;SDS011;231;48.120;11.576;2023-12-20T15:24:38;214.43;;;123.43;;
489;SDS011;231;48.120;11.576;2023-12-20T15:27:07;217.63;;;131.00;;
489;SDS011;231;48.120;11.576;2023-12-20T15:29:35;218.07;;;127.97;;
489;SDS011;231;48.120;11.576;2023-12-20T16:36:57;168.50;;;121.20;;
489;SDS011;231;48.120;11.576;2023-12-20T16:39:32;169.10;;;120.73;;
489;SDS011;231;48.120;11.576;2023-12-20T16:41:59;170.67;;;120.00;;
489;SDS011;231;48.120;11.576;2023-12-20T16:44:27;174.03;;;125.57;;
489;SDS011;231;48.120;11.576;2023-12-20T16:46:57;167.43;;;118.77;;
489;SDS011;231;48.120;11.576;2023-12-20T16:49:24;174.60;;;126.27;;
489;SDS011;231;48.120;11.576;2023-12-20T16:51:56;174.77;;;124.90;;
489;SDS011;231;48.120;11.576;2023-12-20T16:54:22;174.93;;;123.97;;
489;SDS011;231;48.120;11.576;2023-12-20T16:56:49;175.63;;;123.37;;
489;SDS011;231;48.120;11.576;2023-12-20T16:59:17;177.60;;;121.10;;
489;SDS011;231;48.120;11.576;2023-12-20T17:01:44;178.43;;;124.57;;
489;SDS011;231;48.120;11.576;2023-12-20T17:04:11;180.60;;;126.40;;
489;SDS011;231;48.120;11.576;2023-12-20T17:06:38;179.40;;;126.87;;
489;SDS011;231;48.120;11.576;2023-12-20T17:09:06;178.20;;;122.50;;
489;SDS011;231;48.120;11.576;2023-12-20T17:11:33;177.23;;;119.13;;
489;SDS011;231;48.120;11.576;2023-12-20T17:14:00;179.33;;;121.40;;
489;SDS011;231;48.120;11.576;2023-12-20T17:16:27;186.80;;;132.33;;
489;SDS011;231;48.120;11.576;2023-12-20T17:18:54;180.37;;;123.17;;
489;SDS011;231;48.120;11.576;2023-12-20T17:21:21;180.50;;;125.30;;
489;SDS011;231;48.120;11.576;2023-12-20T17:23:48;181.57;;;124.43;;
489;SDS011;231;48.120;11.576;2023-12-20T17:26:17;181.70;;;124.60;;
489;SDS011;231;48.120;11.576;2023-12-20T17:28:44;180.33;;;123.20;;
489;SDS011;231;48.120;11.576;2023-12-20T17:31:11;181.27;;;121.33;;
489;SDS011;231;48.120;11.576;2023-12-20T17:33:37;182.33;;;122.20;;
489;SDS011;231;48.120;11.576;2023-12-20T17:36:04;182.47;;;125.90;;
489;SDS011;231;48.120;11.576;2023-12-20T17:38:32;182.13;;;123.20;;
489;SDS011;231;48.120;11.576;2023-12-20T17:41:01;184.03;;;128.17;;
489;SDS011;231;48.120;11.576;2023-12-20T17:43:29;183.23;;;123.07;;
489;SDS011;231;48.120;11.576;2023-12-20T17:45:56;182.07;;;120.87;;
489;SDS011;231;48.120;11.576;2023-12-20T17:48:23;183.13;;;122.23;;
489;SDS011;231;48.120;11.576;2023-12-20T17:50:50;182.03;;;120.07;;
489;SDS011;231;48.120;11.576;2023-12-20T17:53:17;181.87;;;121.77;;
489;SDS011;231;48.120;11.576;2023-12-20T17:55:43;183.17;;;123.50;;
489;SDS011;231;48.120;11.576;2023-12-20T17:58:10;182.73;;;124.47;;
489;SDS011;231;48.120;11.576;2023-12-20T18:00:39;182.97;;;120.93;;
489;SDS011;231;48.120;11.576;2023-12-20T18:03:05;185.20;;;124.60;;
489;SDS011;231;48.120;11.576;2023-12-20T18:05:32;183.20;;;119.83;;
489;SDS011;231;48.120;11.576;2023-12-20T18:07:59;182.93;;;121.83;;
489;SDS011;231;48.120;11.576;2023-12-20T18:10:26;184.43;;;123.43;;
489;SDS011;231;48.120;11.576;2023-12-20T18:12:53;184.63;;;126.73;;
489;SDS011;231;48.120;11.576;2023-12-20T18:15:21;184.53;;;126.13;;
489;SDS011;231;48.120;11.576;2023-12-20T18:17:49;184.17;;;122.67;;
489;SDS011;231;48.120;11.576;2023-12-20T18:20:16;184.70;;;123.97;;
489;SDS011;231;48.120;11.576;2023-12-20T18:22:43;185.27;;;123.90;;
489;SDS011;231;48.120;11.576;2023-12-20T18:25:09;184.93;;;122.70;;
489;SDS011;231;48.120;11.576;2023-12-20T18:27:37;183.13;;;119.23;;
489;SDS011;231;48.120;11.576;2023-12-20T18:30:04;185.03;;;121.20;;
489;SDS011;231;48.120;11.576;2023-12-20T18:32:31;185.23;;;122.33;;
489;SDS011;231;48.120;11.576;2023-12-20T18:35:00;185.37;;;121.73;;
489;SDS011;231;48.120;11.576;2023-12-20T18:37:28;185.83;;;122.80;;
489;SDS011;231;48.120;11.576;2023-12-20T18:39:55;185.53;;;119.63;;
489;SDS011;231;48.120;11.576;2023-12-20T18:42:22;187.80;;;123.70;;
489;SDS011;231;48.120;11.576;2023-12-20T18:44:51;188.63;;;122.40;;
489;SDS011;231;48.120;11.576;2023-12-20T18:47:20;187.43;;;121.03;;
489;SDS011;231;48.120;11.576;2023-12-20T18:49:47;187.77;;;122.83;;
489;SDS011;231;48.120;11.576;2023-12-20T18:52:16;189.20;;;124.47;;
489;SDS011;231;48.120;11.576;2023-12-20T18:54:43;187.67;;;122.27;;
489;SDS011;231;48.120;11.576;2023-12-20T18:57:10;190.07;;;124.33;;
489;SDS011;231;48.120;11.576;2023-12-20T18:59:36;188.87;;;120.43;;
489;SDS011;231;48.120;11.576;2023-12-20T19:02:05;189.70;;;123.40;;
489;SDS011;231;48.120;11.576;2023-12-20T19:04:43;190.27;;;122.50;;
489;SDS011;231;48.120;11.576;2023-12-20T19:07:11;190.03;;;119.67;;
489;SDS011;231;48.120;11.576;2023-12-20T19:10:39;201.50;;;134.57;;
489;SDS011;231;48.120;11.576;2023-12-20T19:13:31;187.23;;;120.00;;
489;SDS011;231;48.120;11.576;2023-12-20T19:16:08;189.17;;;122.80;;
489;SDS011;231;48.120;11.576;2023-12-20T19:22:00;186.33;;;120.00;;
489;SDS011;231;48.120;11.576;2023-12-20T19:24:55;188.90;;;122.90;;
489;SDS011;231;48.120;11.576;2023-12-20T19:34:47;190.10;;;127.33;;
489;SDS011;231;48.120;11.576;2023-12-20T19:37:29;189.00;;;124.00;;
489;SDS011;231;48.120;11.576;2023-12-20T19:40:21;190.47;;;125.67;;
489;SDS011;231;48.120;11.576;2023-12-20T19:43:08;190.53;;;125.13;;
489;SDS011;231;48.120;11.576;2023-12-20T19:45:38;191.63;;;124.53;;
489;SDS011;231;48.120;11.576;2023-12-20T19:48:06;191.73;;;123.40;;
489;SDS011;231;48.120;11.576;2023-12-20T19:58:15;194.07;;;125.83;;
489;SDS011;231;48.120;11.576;2023-12-20T20:00:42;192.70;;;124.20;;
489;SDS011;231;48.120;11.576;2023-12-20T20:03:09;191.87;;;123.37;;
489;SDS011;231;48.120;11.576;2023-12-20T20:05:36;192.90;;;123.67;;
489;SDS011;231;48.120;11.576;2023-12-20T20:08:04;192.57;;;122.13;;
489;SDS011;231;48.120;11.576;2023-12-20T20:10:33;199.07;;;129.03;;
